Midway, Mississippi
Current Conditions -  °F | °C
As of 4:55 PM on Wednesday 26 Nov 2014 (Local Time) from KCRX Reporting Station
Broken Clouds Broken Clouds  
Wind Chill: 44°   Ceiling: 9500
Heat Index: 46°   Visibility: 10mi
Dew Point: 32°   Wind: 5mph
Humidity: 57%   Direction: 220°SW
Pressure: 30.02"   Gusts: NA
Location:  34.8106°N, 88.1999°W
Report Text: KCRX 262255Z AUTO 22004KT 10SM SCT050 BKN095 08/00 A3002 RMK AO2
Loading
Personal Weather Stations






























Interactive Weather Map New forecast layout! Learn more

10-Day Weather Forecast

Advertisements
Track Severe Weather on mobile